Time;durP1;ratioP1;P1;durP2;ratioP2;P2;SDS_P1;SDS_P2;PMS_P1;PMS_P2;Temp;Humidity;BMP_temperature;BMP_pressure;BME280_temperature;BME280_humidity;BME280_pressure;Samples;Min_cycle;Max_cycle;Signal;HPM_P1;HPM_P2
2022/11/18 00:02:13;;;;;;;7.85;4.63;;;;;;;11.84;63.29;99863.25;6275704;22;20071;-96
2022/11/18 00:04:42;;;;;;;6.72;4.53;;;;;;;11.82;63.34;99850.00;6275534;22;20023;-95
2022/11/18 00:07:19;;;;;;;7.45;4.47;;;;;;;11.98;63.55;99878.59;6317759;22;20033;-96
2022/11/18 00:09:46;;;;;;;7.57;4.90;;;;;;;11.63;63.97;99826.34;6275919;22;20030;-96
2022/11/18 00:15:09;;;;;;;9.30;5.10;;;;;;;11.52;63.86;99821.44;6300260;22;20129;-95
2022/11/18 00:18:05;;;;;;;6.93;4.38;;;;;;;11.88;63.81;99875.38;6269427;22;20027;-94
2022/11/18 00:20:40;;;;;;;7.35;4.90;;;;;;;11.76;64.13;99868.75;6271295;22;20117;-94
2022/11/18 00:23:15;;;;;;;8.73;4.80;;;;;;;11.59;64.29;99858.19;6262462;22;20028;-96
2022/11/18 00:25:47;;;;;;;9.43;5.28;;;;;;;11.55;64.31;99843.44;6279608;22;20012;-93
2022/11/18 00:28:26;;;;;;;;;;;;;;;;;;;;;
2022/11/18 00:31:26;;;;;;;7.40;4.85;;;;;;;11.38;64.57;99844.66;6273984;22;20020;-95
2022/11/18 00:34:37;;;;;;;7.45;4.88;;;;;;;11.65;64.46;99893.47;6273254;22;20476;-94
2022/11/18 00:37:26;;;;;;;7.28;4.80;;;;;;;11.39;64.54;99859.78;6269295;22;20121;-94
2022/11/18 00:40:03;;;;;;;8.55;5.45;;;;;;;11.58;64.75;99896.06;6237856;22;20015;-94
2022/11/18 00:45:14;;;;;;;8.27;4.90;;;;;;;11.52;64.42;99884.19;6286052;22;20022;-96
2022/11/18 00:47:43;;;;;;;;;;;;;;;11.58;64.72;99896.88;6301739;22;20072;-95
2022/11/18 00:50:16;;;;;;;7.88;4.70;;;;;;;11.23;65.13;99855.41;6337400;22;19914;-95
2022/11/18 00:55:13;;;;;;;8.30;5.82;;;;;;;11.34;66.27;99902.56;6328033;22;20034;-94
2022/11/18 00:57:38;;;;;;;;;;;;;;;11.22;67.43;99909.41;6252099;22;20035;-95
2022/11/18 01:00:05;;;;;;;10.27;6.05;;;;;;;11.13;67.43;99909.50;6276941;22;19922;-96
2022/11/18 01:02:31;;;;;;;13.38;6.10;;;;;;;11.22;67.58;99898.66;6251210;22;20003;-96
2022/11/18 01:04:58;;;;;;;8.85;6.18;;;;;;;10.96;67.94;99859.56;6277913;22;20081;-92
2022/11/18 01:07:24;;;;;;;10.45;6.07;;;;;;;11.15;68.12;99902.06;6244640;22;20011;-96
2022/11/18 01:09:54;;;;;;;10.23;6.47;;;;;;;11.13;68.02;99898.72;6248313;22;20051;-93
2022/11/18 01:15:08;;;;;;;10.70;6.43;;;;;;;11.01;68.33;99896.69;6335763;22;20075;-96
2022/11/18 01:17:44;;;;;;;8.68;6.22;;;;;;;10.70;68.69;99865.31;6265808;22;20007;-95
2022/11/18 01:20:14;;;;;;;10.60;6.75;;;;;;;10.59;69.05;99865.78;6286703;22;20003;-94
2022/11/18 01:22:42;;;;;;;9.70;6.40;;;;;;;10.77;69.06;99895.88;6313889;22;19995;-95
2022/11/18 01:25:08;;;;;;;11.38;6.93;;;;;;;10.55;68.99;99862.59;6283847;22;19991;-93
2022/11/18 01:27:33;;;;;;;;;;;;;;;10.70;69.00;99893.06;6310550;22;19998;-92
2022/11/18 01:29:59;;;;;;;8.57;5.43;;;;;;;10.67;68.86;99892.56;6308272;22;19924;-92
2022/11/18 01:32:26;;;;;;;9.50;6.00;;;;;;;10.32;68.74;99841.97;6275845;22;20094;-92
2022/11/18 01:34:55;;;;;;;9.55;5.60;;;;;;;10.51;68.91;99888.16;6300165;22;20009;-94
2022/11/18 01:37:21;;;;;;;7.43;5.00;;;;;;;10.29;68.80;99860.28;6275794;22;20040;-93
2022/11/18 01:39:48;;;;;;;8.10;4.78;;;;;;;10.47;68.37;99882.31;6277378;22;20006;-96
2022/11/18 01:42:15;;;;;;;10.05;4.43;;;;;;;10.42;68.17;99883.84;6308346;22;20070;-95
2022/11/18 01:45:03;;;;;;;8.38;4.28;;;;;;;10.43;67.74;99886.38;6308314;22;20014;-93
2022/11/18 01:47:33;;;;;;;6.03;4.30;;;;;;;10.33;67.64;99867.81;6336183;22;20049;-94
2022/11/18 01:49:59;;;;;;;8.40;4.32;;;;;;;10.25;67.51;99858.91;6285027;22;19995;-95
2022/11/18 01:55:01;;;;;;;9.23;3.90;;;;;;;10.18;67.28;99841.84;6322519;22;20022;-96
2022/11/18 02:02:39;;;;;;;7.78;5.13;;;;;;;10.02;69.87;99875.88;6398243;22;20025;-95
2022/11/18 02:07:38;;;;;;;8.40;5.32;;;;;;;9.96;70.99;99883.78;6362960;22;20076;-95
2022/11/18 02:10:09;;;;;;;9.10;6.20;;;;;;;9.81;71.82;99876.47;6309712;22;19995;-95
2022/11/18 02:12:36;;;;;;;10.27;6.50;;;;;;;9.76;72.52;99861.88;6311054;22;19999;-96
2022/11/18 02:15:08;;;;;;;11.10;6.70;;;;;;;9.46;73.79;99835.69;6335853;22;20014;-94
2022/11/18 02:17:53;;;;;;;11.40;6.75;;;;;;;9.48;74.05;99833.69;6286193;22;20002;-96
2022/11/18 02:20:31;;;;;;;9.70;6.60;;;;;;;9.85;73.71;99871.59;6312871;22;19995;-95
2022/11/18 02:23:37;;;;;;;15.32;6.95;;;;;;;9.72;74.54;99867.63;6311367;22;20007;-95
2022/11/18 02:26:15;;;;;;;13.40;7.47;;;;;;;9.66;74.86;99867.47;6363375;22;20017;-96
2022/11/18 02:29:04;;;;;;;13.95;7.45;;;;;;;9.62;75.55;99868.81;6362658;22;20002;-94
2022/11/18 02:40:12;;;;;;;12.27;6.88;;;;;;;9.06;78.38;99840.19;6325963;22;20033;-95
2022/11/18 02:42:38;;;;;;;16.13;7.35;;;;;;;8.97;78.46;99824.28;6303847;22;20093;-95
2022/11/18 02:45:06;;;;;;;14.23;7.13;;;;;;;8.94;78.29;99830.81;6270425;22;20042;-94
2022/11/18 02:47:32;;;;;;;10.40;6.50;;;;;;;9.09;78.48;99858.59;6276659;22;20027;-93
2022/11/18 02:50:00;;;;;;;15.38;7.13;;;;;;;8.97;77.94;99825.13;6263940;22;20024;-94
2022/11/18 02:52:29;;;;;;;15.65;6.80;;;;;;;9.16;77.76;99860.63;6244700;22;20035;-94
2022/11/18 02:54:55;;;;;;;13.05;6.70;;;;;;;9.31;77.27;99880.34;6279997;22;20038;-94
2022/11/18 02:57:21;;;;;;;11.02;6.55;;;;;;;9.05;77.49;99853.75;6277387;22;20007;-95
2022/11/18 03:02:21;;;;;;;12.07;7.82;;;;;;;8.90;77.71;99844.72;6327421;22;20027;-95
2022/11/18 03:09:56;;;;;;;14.85;8.50;;;;;;;9.08;77.63;99886.44;5513378;22;18182101;-96
2022/11/18 03:12:53;;;;;;;13.90;8.07;;;;;;;9.08;77.08;99897.16;6279215;22;20003;-93
2022/11/18 03:15:27;;;;;;;12.35;7.65;;;;;;;9.05;77.12;99891.28;6305143;22;20063;-95
2022/11/18 03:18:21;;;;;;;16.38;8.63;;;;;;;8.84;76.98;99859.66;6305779;22;20003;-96
2022/11/18 03:23:40;;;;;;;15.35;7.82;;;;;;;8.98;76.69;99888.44;6342673;22;20042;-93
2022/11/18 03:26:30;;;;;;;14.88;8.15;;;;;;;8.71;76.69;99856.63;6298623;22;20023;-95
2022/11/18 03:29:04;;;;;;;15.15;7.75;;;;;;;8.90;76.54;99879.56;6319927;22;20098;-93
2022/11/18 03:31:48;;;;;;;14.00;7.30;;;;;;;8.98;76.24;99891.13;6337085;22;20026;-93
2022/11/18 03:34:20;;;;;;;16.10;7.63;;;;;;;8.59;76.39;99832.88;6230637;22;20034;-93
2022/11/18 03:36:51;;;;;;;14.50;7.60;;;;;;;8.85;75.94;99869.38;6224986;22;20007;-94
2022/11/18 03:44:50;;;;;;;12.30;6.80;;;;;;;9.00;74.32;99873.03;6329290;22;20007;-94
2022/11/18 03:47:50;;;;;;;10.30;6.15;;;;;;;8.91;74.14;99857.97;6305817;22;20011;-96
2022/11/18 03:50:28;;;;;;;10.85;5.88;;;;;;;8.91;74.04;99860.63;6300018;22;20029;-95
2022/11/18 03:52:54;;;;;;;10.80;6.20;;;;;;;8.92;73.97;99864.16;6272834;22;20018;-94
2022/11/18 03:55:26;;;;;;;9.90;6.25;;;;;;;8.88;73.87;99855.63;6277806;22;20040;-96
2022/11/18 03:58:16;;;;;;;12.80;6.60;;;;;;;9.19;73.73;99897.81;6318001;22;20059;-94
2022/11/18 04:00:45;;;;;;;14.68;6.82;;;;;;;8.98;73.55;99863.47;6325845;22;20030;-94
2022/11/18 04:03:12;;;;;;;14.82;6.70;;;;;;;9.25;73.40;99905.19;6333220;22;20015;-95
2022/11/18 04:05:40;;;;;;;12.02;6.97;;;;;;;9.03;73.24;99867.31;6280630;22;20088;-93
2022/11/18 04:08:20;;;;;;;13.43;6.80;;;;;;;8.95;73.04;99848.56;6305605;22;20015;-95
2022/11/18 04:10:48;;;;;;;11.32;6.78;;;;;;;9.24;73.07;99898.13;6276721;22;20100;-95
2022/11/18 04:13:15;;;;;;;11.90;6.60;;;;;;;9.28;72.94;99892.25;6301763;22;20031;-96
2022/11/18 04:15:41;;;;;;;14.18;7.43;;;;;;;9.36;72.75;99891.38;6303672;22;20011;-96
2022/11/18 04:18:12;;;;;;;14.63;8.07;;;;;;;9.36;72.77;99893.22;6301027;22;20014;-96
2022/11/18 04:20:38;;;;;;;15.32;7.53;;;;;;;9.09;72.51;99849.72;6311269;22;20100;-94
2022/11/18 04:25:39;;;;;;;11.20;5.83;;;;;;;9.22;71.80;99854.53;6364055;22;19942;-93
2022/11/18 04:28:05;;;;;;;10.65;6.32;;;;;;;9.34;71.57;99858.56;6279460;22;20003;-95
2022/11/18 04:30:30;;;;;;;10.27;5.63;;;;;;;9.50;71.52;99901.44;6275896;22;20026;-94
2022/11/18 04:32:59;;;;;;;9.55;5.03;;;;;;;9.28;71.36;99869.97;6283283;22;20010;-96
2022/11/18 04:35:31;;;;;;;12.35;5.30;;;;;;;9.44;70.81;99896.75;6304996;22;20026;-94
2022/11/18 04:38:08;;;;;;;14.05;6.45;;;;;;;9.34;70.90;99890.75;6333114;22;20062;-95
2022/11/18 04:40:34;;;;;;;15.85;7.40;;;;;;;9.32;71.17;99884.72;6308461;22;19999;-95
2022/11/18 04:43:03;;;;;;;14.90;7.88;;;;;;;9.18;71.34;99869.31;6307055;22;20011;-94
2022/11/18 04:47:59;;;;;;;14.57;7.18;;;;;;;9.49;71.41;99931.94;6397066;22;20073;-94
2022/11/18 04:50:25;;;;;;;14.20;7.18;;;;;;;9.48;71.50;99938.31;6340082;22;20066;-93
2022/11/18 04:52:51;;;;;;;16.75;8.15;;;;;;;9.45;71.84;99935.13;6339533;22;20389;-94
2022/11/18 04:57:56;;;;;;;15.88;8.02;;;;;;;9.03;72.16;99887.94;6375843;22;20124;-93
2022/11/18 05:00:22;;;;;;;22.08;8.57;;;;;;;9.36;72.28;99945.03;6275321;22;21422;-89
2022/11/18 13:51:39;;;;;;;24.70;15.95;;;;;;;17.07;71.10;99653.69;6271409;22;20242;-93
2022/11/18 13:54:05;;;;;;;27.45;15.85;;;;;;;16.77;72.73;99655.50;6336813;22;20042;-93
2022/11/18 13:56:30;;;;;;;;;;;;;;;16.91;73.23;99680.63;6301406;22;20170;-94
2022/11/18 13:58:59;;;;;;;25.92;17.13;;;;;;;16.54;73.92;99654.25;6328185;22;19931;-96
2022/11/18 14:01:32;;;;;;;31.67;19.63;;;;;;;16.72;73.85;99674.34;6306615;22;20022;-89
2022/11/18 14:04:02;;;;;;;27.77;17.77;;;;;;;16.88;73.70;99690.06;6321560;22;20037;-91
2022/11/18 14:06:35;;;;;;;28.77;18.50;;;;;;;16.59;74.64;99665.25;6317609;22;20002;-92
2022/11/18 14:09:19;;;;;;;32.58;18.85;;;;;;;16.61;74.85;99671.28;6324491;22;20037;-90
2022/11/18 14:11:56;;;;;;;27.73;18.05;;;;;;;16.52;75.14;99656.38;6297612;22;20093;-94
2022/11/18 14:14:35;;;;;;;33.85;19.65;;;;;;;16.57;75.17;99672.78;6352210;22;20013;-93
2022/11/18 14:17:23;;;;;;;30.45;18.63;;;;;;;16.58;75.13;99674.47;6324197;22;20055;-92
2022/11/18 14:19:53;;;;;;;48.80;20.77;;;;;;;16.45;75.29;99658.31;6348727;22;20524;-90
2022/11/18 14:22:32;;;;;;;38.95;19.27;;;;;;;16.55;75.84;99688.50;6324274;22;20002;-92
2022/11/18 14:25:02;;;;;;;35.00;19.63;;;;;;;16.43;76.33;99671.28;6320370;22;20030;-94
2022/11/18 14:27:48;;;;;;;37.55;19.63;;;;;;;16.09;77.26;99635.50;6300634;22;20014;-93
2022/11/18 14:30:26;;;;;;;31.10;19.48;;;;;;;16.24;77.90;99665.81;6320781;22;19999;-94
2022/11/18 14:33:27;;;;;;;34.03;19.80;;;;;;;16.00;77.85;99625.97;6350142;22;20038;-92
2022/11/18 14:36:00;;;;;;;34.00;19.85;;;;;;;16.25;77.61;99662.06;6328316;22;20017;-92
2022/11/18 14:38:34;;;;;;;33.15;20.48;;;;;;;16.22;77.72;99648.94;6350216;22;20074;-93
2022/11/18 14:41:02;;;;;;;35.50;19.95;;;;;;;16.29;77.50;99654.28;6347672;22;20051;-92
2022/11/18 14:43:37;;;;;;;27.15;18.30;;;;;;;16.29;77.90;99648.03;6312608;22;20385;-94
2022/11/18 14:46:26;;;;;;;29.87;17.63;;;;;;;16.17;78.12;99627.06;6312787;22;20010;-93
2022/11/18 14:48:52;;;;;;;28.65;16.70;;;;;;;16.19;77.95;99614.13;6328968;22;20048;-93
2022/11/18 14:51:18;;;;;;;30.02;17.92;;;;;;;16.37;77.86;99648.59;6294292;22;20010;-92
2022/11/18 14:53:44;;;;;;;26.33;16.98;;;;;;;16.30;78.13;99642.41;6318723;22;20021;-91
2022/11/18 14:56:19;;;;;;;26.15;16.63;;;;;;;15.99;78.53;99600.75;6290543;22;20003;-93
2022/11/18 14:58:45;;;;;;;30.67;17.53;;;;;;;15.88;78.96;99592.53;6319390;22;19994;-92
2022/11/18 15:01:11;;;;;;;28.40;17.65;;;;;;;16.02;79.32;99627.41;6296976;22;20252;-92
2022/11/18 15:03:37;;;;;;;33.95;18.10;;;;;;;16.10;79.26;99625.47;6294568;22;20010;-93
2022/11/18 15:06:02;;;;;;;36.78;19.10;;;;;;;16.04;79.32;99616.38;6290466;22;20017;-93
2022/11/18 15:08:28;;;;;;;;;;;;;;;16.06;79.91;99622.41;6295889;22;20024;-92
2022/11/18 15:10:53;;;;;;;;;;;;;;;16.01;79.88;99614.94;6319886;22;19914;-92
2022/11/18 15:13:19;;;;;;;29.17;16.95;;;;;;;15.74;80.19;99584.50;6336677;22;19961;-91
2022/11/18 15:15:44;;;;;;;;;;;;;;;15.95;80.01;99610.38;6337445;22;19998;-91
2022/11/18 15:18:10;;;;;;;34.67;18.15;;;;;;;15.70;80.00;99572.44;6336398;22;19898;-93
2022/11/18 15:20:36;;;;;;;33.83;18.70;;;;;;;15.81;80.67;99623.22;6311237;22;20003;-92
2022/11/18 15:23:01;;;;;;;;;;;;;;;15.81;80.80;99623.22;6329026;22;19999;-92
2022/11/18 15:25:26;;;;;;;;;;;;;;;15.64;81.38;99627.50;6325328;22;19911;-92
2022/11/18 15:27:52;;;;;;;26.33;16.37;;;;;;;15.60;81.83;99628.97;6322648;22;19933;-93
2022/11/18 15:30:18;;;;;;;;;;;;;;;15.62;81.24;99624.16;6297592;22;20079;-90
2022/11/18 15:32:43;;;;;;;36.40;18.52;;;;;;;15.21;82.18;99590.25;6349410;22;19957;-91
2022/11/18 15:35:10;;;;;;;34.05;18.52;;;;;;;15.34;81.81;99595.59;6297231;22;20014;-93
2022/11/18 15:37:36;;;;;;;45.38;23.75;;;;;;;15.54;81.52;99611.69;6318365;22;20006;-92
2022/11/18 15:40:02;;;;;;;39.75;20.02;;;;;;;15.53;81.35;99604.63;6323912;22;20002;-91
2022/11/18 15:42:28;;;;;;;34.03;18.25;;;;;;;15.67;81.59;99626.22;6306736;22;20002;-92
2022/11/18 15:44:53;;;;;;;32.22;16.20;;;;;;;15.51;81.38;99589.66;6297917;22;20022;-92
2022/11/18 15:47:19;;;;;;;30.92;17.80;;;;;;;15.67;81.56;99615.38;6291982;22;20019;-92
2022/11/18 15:49:45;;;;;;;29.23;17.20;;;;;;;15.41;81.62;99572.00;6290950;22;20006;-93
2022/11/18 15:52:10;;;;;;;;;;;;;;;15.76;81.38;99609.50;6289963;22;20148;-93
2022/11/18 15:54:36;;;;;;;;;;;;;;;15.66;81.65;99611.00;6317347;22;19906;-93
2022/11/18 15:57:01;;;;;;;35.47;17.90;;;;;;;15.30;82.00;99577.28;6315794;22;19906;-92
2022/11/18 15:59:27;;;;;;;41.10;18.60;;;;;;;15.54;81.92;99613.56;6287498;22;20102;-91
2022/11/18 16:01:54;;;;;;;36.20;20.75;;;;;;;15.43;82.28;99592.59;6287228;22;20025;-92
2022/11/18 16:04:19;;;;;;;27.45;14.57;;;;;;;15.19;81.22;99554.44;6287452;22;19998;-91
2022/11/18 16:06:45;;;;;;;22.23;12.10;;;;;;;15.45;81.00;99585.09;6291074;22;20025;-91
2022/11/18 16:09:14;;;;;;;28.80;15.27;;;;;;;15.32;80.42;99567.06;6315152;22;19999;-92
2022/11/18 16:14:23;;;;;;;27.42;14.65;;;;;;;15.52;79.82;99588.59;6319739;22;20021;-92
2022/11/18 16:16:50;;;;;;;28.83;14.57;;;;;;;15.35;79.46;99563.91;6291212;22;20011;-92
2022/11/18 16:19:17;;;;;;;28.85;13.35;;;;;;;15.44;79.06;99561.78;6287099;22;20013;-92
2022/11/18 16:21:45;;;;;;;22.65;11.82;;;;;;;15.74;78.92;99611.59;6317892;22;20017;-91
2022/11/18 16:24:12;;;;;;;20.48;12.93;;;;;;;15.52;78.81;99566.91;6304832;22;20007;-92
2022/11/18 16:26:38;;;;;;;23.08;11.95;;;;;;;15.57;78.46;99567.94;6308045;22;20517;-90
2022/11/18 16:29:04;;;;;;;23.88;12.27;;;;;;;15.50;78.30;99560.88;6310449;22;19999;-89
2022/11/18 16:31:39;;;;;;;21.38;12.57;;;;;;;15.66;78.52;99595.56;6311073;22;20002;-91
2022/11/18 16:34:08;;;;;;;27.50;12.30;;;;;;;15.75;78.21;99625.97;6324414;22;20029;-91
2022/11/18 16:36:34;;;;;;;28.73;13.38;;;;;;;15.64;78.46;99627.50;6340253;22;19998;-93
2022/11/18 16:39:04;;;;;;;34.90;15.38;;;;;;;15.54;78.29;99597.31;6314595;22;20002;-93
2022/11/18 16:41:30;;;;;;;34.80;19.40;;;;;;;15.60;78.15;99621.66;6300081;22;20002;-93
2022/11/18 16:43:59;;;;;;;31.42;15.95;;;;;;;15.75;78.40;99624.06;6334601;22;20002;-91
2022/11/18 16:46:25;;;;;;;20.50;11.68;;;;;;;15.57;79.12;99599.63;6314315;22;19995;-92
2022/11/18 16:48:51;;;;;;;26.50;15.07;;;;;;;15.38;79.17;99567.03;6313451;22;20074;-93
2022/11/18 16:51:19;;;;;;;30.80;14.52;;;;;;;15.62;79.35;99607.91;6338275;22;20064;-89
2022/11/18 16:53:55;;;;;;;36.25;13.90;;;;;;;15.35;79.22;99563.91;6325888;22;20023;-93
2022/11/18 16:56:22;;;;;;;30.23;15.18;;;;;;;15.26;79.40;99570.63;6288642;22;20003;-90
2022/11/18 16:58:48;;;;;;;25.33;14.35;;;;;;;15.49;80.40;99618.81;6288716;22;20074;-90
2022/11/18 17:01:14;;;;;;;31.02;15.38;;;;;;;15.13;80.26;99552.63;6313693;22;20006;-93
2022/11/18 17:03:40;;;;;;;31.75;15.93;;;;;;;15.40;80.14;99600.13;6316937;22;20205;-93
2022/11/18 17:06:05;;;;;;;;;;;;;;;15.58;79.65;99612.09;6292894;22;20011;-91
2022/11/18 17:08:36;;;;;;;23.33;13.35;;;;;;;15.34;80.52;99564.97;6312840;22;19906;-92
2022/11/18 17:11:09;;;;;;;25.73;15.27;;;;;;;15.55;80.94;99607.13;6314615;22;20145;-93
2022/11/18 17:13:35;;;;;;;34.33;15.88;;;;;;;15.18;80.45;99563.63;6291220;22;20003;-92
2022/11/18 17:16:04;;;;;;;;;;;;;;;15.50;80.57;99605.06;6317229;22;20079;-92
2022/11/18 17:18:30;;;;;;;29.77;16.65;;;;;;;15.26;80.77;99574.16;6315341;22;19993;-90
2022/11/18 17:21:00;;;;;;;33.20;14.32;;;;;;;15.24;81.71;99587.13;6290281;22;20014;-91
2022/11/18 17:23:27;;;;;;;26.67;15.00;;;;;;;15.43;81.30;99604.28;6304891;22;20074;-91
2022/11/18 17:25:53;;;;;;;35.55;18.08;;;;;;;15.34;81.70;99609.13;6303863;22;20027;-90
2022/11/18 17:28:18;;;;;;;;;;;;;;;15.35;81.63;99602.66;6328423;22;20026;-91
2022/11/18 17:30:46;;;;;;;27.50;15.07;;;;;;;15.32;81.97;99611.22;6338778;22;20234;-92
2022/11/18 17:33:13;;;;;;;30.73;14.85;;;;;;;15.13;81.88;99572.38;6289202;22;20022;-90
2022/11/18 17:35:38;;;;;;;34.22;15.57;;;;;;;15.08;82.28;99571.38;6291536;22;20015;-92
2022/11/18 17:38:04;;;;;;;27.05;16.20;;;;;;;15.20;81.76;99566.94;6286984;22;20027;-90
2022/11/18 17:40:30;;;;;;;24.58;14.32;;;;;;;15.02;82.19;99542.47;6287769;22;20019;-90
2022/11/18 17:42:55;;;;;;;25.00;12.95;;;;;;;15.00;82.47;99545.38;6287374;22;20113;-91
2022/11/18 17:45:21;;;;;;;;;;;;;;;15.29;82.09;99597.28;6286436;22;20112;-93
2022/11/18 17:47:46;;;;;;;26.15;14.77;;;;;;;15.32;82.01;99596.84;6340672;22;19927;-92
2022/11/18 17:50:12;;;;;;;25.40;12.80;;;;;;;15.24;82.05;99573.59;6285735;22;20009;-92
2022/11/18 17:52:37;;;;;;;22.02;12.32;;;;;;;15.13;82.60;99539.91;6317174;22;20018;-91
2022/11/18 17:55:03;;;;;;;21.90;12.55;;;;;;;15.34;81.92;99559.56;6291712;22;20063;-92
2022/11/18 17:57:29;;;;;;;24.95;13.32;;;;;;;15.48;82.06;99581.97;6292326;22;20013;-91
2022/11/18 17:59:54;;;;;;;;;;;;;;;15.46;81.70;99575.94;6293514;22;20037;-92
2022/11/18 18:02:20;;;;;;;;;;;;;;;15.37;81.79;99578.88;6323564;22;19917;-92
2022/11/18 18:04:46;;;;;;;27.90;13.13;;;;;;;15.26;82.07;99566.03;6326488;22;19902;-92
2022/11/18 18:07:11;;;;;;;;;;;;;;;15.41;81.76;99572.00;6351831;22;20225;-90
2022/11/18 18:09:37;;;;;;;27.77;12.50;;;;;;;15.27;82.27;99535.22;6379517;22;19910;-92
2022/11/18 18:14:11;;;;;;;;;;;;;;;15.51;82.23;99551.72;6351337;22;20013;-89
2022/11/18 18:14:48;;;;;;;;;;;;;;;15.43;82.42;99554.69;6351597;22;19906;-92
2022/11/18 18:17:13;;;;;;;30.95;14.15;;;;;;;15.31;82.49;99550.00;6320007;22;19988;-92
2022/11/18 18:19:39;;;;;;;37.75;18.23;;;;;;;15.05;81.89;99517.66;6318463;22;20015;-91
2022/11/18 18:22:05;;;;;;;35.75;15.90;;;;;;;15.01;82.14;99505.59;6318326;22;20006;-92
2022/11/18 18:24:30;;;;;;;33.95;15.10;;;;;;;15.17;82.67;99545.69;6318488;22;20006;-92
2022/11/18 18:26:56;;;;;;;34.53;18.42;;;;;;;15.35;81.95;99555.78;6344863;22;20465;-93
2022/11/18 18:29:21;;;;;;;32.15;19.52;;;;;;;15.36;81.27;99560.19;6318650;22;20079;-91
2022/11/18 18:31:47;;;;;;;47.78;20.35;;;;;;;14.96;80.95;99499.00;6344604;22;20067;-92
2022/11/18 18:34:12;;;;;;;33.28;18.83;;;;;;;15.22;80.96;99548.59;6293393;22;20082;-93
2022/11/18 18:36:38;;;;;;;32.50;19.65;;;;;;;15.22;80.87;99535.06;6293362;22;20017;-92
2022/11/18 18:39:03;;;;;;;;;;;;;;;15.22;81.03;99536.91;6318915;22;20013;-92
2022/11/18 18:41:29;;;;;;;;;;;;;;;15.18;81.18;99536.53;6374195;22;19906;-92
2022/11/18 18:43:55;;;;;;;35.28;18.40;;;;;;;15.02;81.88;99551.41;6319496;22;20319;-93
2022/11/18 18:46:28;;;;;;;35.22;17.98;;;;;;;14.92;81.75;99500.47;6344626;22;20055;-92
2022/11/18 18:48:55;;;;;;;39.70;19.42;;;;;;;14.87;82.29;99526.53;6322319;22;19998;-91
2022/11/18 18:51:20;;;;;;;28.38;11.68;;;;;;;14.91;82.34;99490.72;6319056;22;20029;-92
2022/11/18 18:53:46;;;;;;;32.75;17.20;;;;;;;14.88;82.43;99511.94;6314304;22;20456;-92
2022/11/18 18:56:12;;;;;;;29.20;15.23;;;;;;;15.02;82.43;99526.22;6342272;22;20033;-92
2022/11/18 18:58:37;;;;;;;;;;;;;;;15.21;81.83;99527.97;6289779;22;20013;-92
2022/11/18 19:01:13;;;;;;;28.58;15.02;;;;;;;15.03;82.53;99504.38;6292396;22;19986;-89
2022/11/18 19:03:40;;;;;;;36.03;15.80;;;;;;;15.23;81.76;99527.75;6289675;22;20007;-92
2022/11/18 19:06:24;;;;;;;28.30;15.65;;;;;;;15.23;82.24;99541.31;6264402;22;20002;-92
2022/11/18 19:08:50;;;;;;;30.40;14.57;;;;;;;15.07;82.09;99518.28;6293330;22;20023;-94
2022/11/18 19:14:09;;;;;;;36.45;14.75;;;;;;;15.33;81.62;99528.09;6298437;22;20339;-91
2022/11/18 19:16:35;;;;;;;33.47;14.50;;;;;;;15.35;81.71;99534.13;6291583;22;20026;-93
2022/11/18 19:19:01;;;;;;;31.17;16.08;;;;;;;15.34;81.20;99532.47;6262125;22;20306;-92
2022/11/18 19:21:26;;;;;;;34.15;15.52;;;;;;;15.27;81.36;99523.56;6262350;22;20007;-91
2022/11/18 19:23:52;;;;;;;32.92;13.70;;;;;;;15.16;81.94;99519.69;6288243;22;20451;-93
2022/11/18 19:26:18;;;;;;;31.48;14.75;;;;;;;15.31;81.52;99544.59;6263565;22;20098;-91
2022/11/18 19:28:44;;;;;;;28.50;14.27;;;;;;;15.27;81.17;99540.66;6259390;22;20014;-92
2022/11/18 19:31:10;;;;;;;33.95;14.80;;;;;;;15.47;80.67;99555.91;6283439;22;20003;-92
2022/11/18 19:33:36;;;;;;;36.88;15.90;;;;;;;15.44;80.63;99580.75;6283896;22;20132;-91
2022/11/18 19:36:02;;;;;;;;;;;;;;;15.46;80.38;99584.06;6313427;22;20002;-91
2022/11/18 19:38:28;;;;;;;27.85;14.18;;;;;;;15.33;80.67;99577.66;6314825;22;19912;-91
2022/11/18 19:41:00;;;;;;;27.60;12.70;;;;;;;15.38;80.04;99586.00;6291737;22;20038;-90
2022/11/18 19:43:26;;;;;;;26.65;12.27;;;;;;;15.23;79.95;99550.25;6316868;22;19999;-90
2022/11/18 19:45:52;;;;;;;25.38;12.82;;;;;;;15.26;79.41;99546.25;6317082;22;20082;-90
2022/11/18 19:48:18;;;;;;;21.17;10.80;;;;;;;15.34;79.29;99552.25;6296589;22;20017;-90
2022/11/18 19:50:44;;;;;;;24.85;9.80;;;;;;;15.36;78.82;99552.88;6296507;22;20006;-89
2022/11/18 19:55:55;;;;;;;19.87;10.40;;;;;;;15.56;78.29;99566.25;6350744;22;20107;-93
2022/11/18 19:58:21;;;;;;;22.83;8.77;;;;;;;15.40;78.38;99535.16;6318646;22;20013;-92
2022/11/18 20:00:47;;;;;;;21.77;10.93;;;;;;;15.72;77.69;99570.34;6347222;22;20370;-94
2022/11/18 20:03:12;;;;;;;;;;;;;;;15.80;77.11;99578.19;6295923;22;20079;-91
2022/11/18 20:05:53;;;;;;;19.75;7.88;;;;;;;15.67;77.20;99553.88;6348631;22;19981;-93
2022/11/18 20:08:23;;;;;;;20.30;7.75;;;;;;;15.64;76.44;99519.13;6299823;22;20006;-90
2022/11/18 20:10:49;;;;;;;25.48;9.23;;;;;;;15.80;76.88;99556.53;6318373;22;20094;-92
2022/11/18 20:13:14;;;;;;;18.45;7.72;;;;;;;15.93;76.42;99565.56;6342526;22;20097;-93
2022/11/18 20:15:40;;;;;;;;;;;;;;;16.05;75.62;99563.78;6319809;22;20007;-90
2022/11/18 20:18:06;;;;;;;17.58;8.15;;;;;;;16.13;75.21;99552.66;6319674;22;19910;-91
2022/11/18 20:20:35;;;;;;;16.23;6.15;;;;;;;16.06;75.80;99549.19;6343867;22;20354;-94
2022/11/18 20:23:01;;;;;;;15.52;5.45;;;;;;;15.98;75.37;99530.50;6291063;22;20006;-93
2022/11/18 20:25:27;;;;;;;17.02;5.85;;;;;;;16.24;74.81;99546.47;6316858;22;20005;-93
2022/11/18 20:27:53;;;;;;;15.20;5.47;;;;;;;16.32;74.59;99550.78;6292667;22;20030;-92
2022/11/18 20:30:18;;;;;;;;;;;;;;;16.44;74.53;99534.59;6299463;22;20358;-92
2022/11/18 20:32:47;;;;;;;16.00;5.72;;;;;;;16.30;73.95;99503.25;6339236;22;19902;-92
2022/11/18 20:35:13;;;;;;;13.70;6.18;;;;;;;16.58;73.53;99525.25;6309279;22;20006;-92
2022/11/18 20:37:38;;;;;;;;;;;;;;;16.70;73.24;99519.03;6342688;22;20010;-90
2022/11/18 20:40:05;;;;;;;15.85;5.50;;;;;;;16.72;72.95;99497.94;6340015;22;19950;-91
2022/11/18 20:45:15;;;;;;;19.13;5.45;;;;;;;16.73;71.98;99475.97;6372548;22;20047;-90
2022/11/18 20:47:40;;;;;;;;;;;;;;;17.09;71.48;99515.81;6331858;22;20011;-91
2022/11/18 20:50:06;;;;;;;15.57;5.97;;;;;;;17.00;71.45;99511.75;6372566;22;19930;-91
2022/11/18 20:52:32;;;;;;;;;;;;;;;17.16;71.35;99532.00;6291452;22;20014;-91
2022/11/18 20:54:58;;;;;;;16.30;6.38;;;;;;;16.85;71.35;99484.19;6343208;22;19962;-91
2022/11/18 20:57:23;;;;;;;;;;;;;;;17.18;71.34;99531.75;6319922;22;20002;-92
2022/11/18 20:59:48;;;;;;;;;;;;;;;17.24;70.91;99528.13;6318411;22;19902;-91
2022/11/18 21:02:14;;;;;;;;;;;;;;;17.23;70.88;99531.88;6318117;22;19981;-92
2022/11/18 21:04:39;;;;;;;18.03;7.73;;;;;;;17.14;71.38;99538.69;6317696;22;19922;-90
2022/11/18 21:07:05;;;;;;;;;;;;;;;17.08;71.48;99538.56;6321699;22;20002;-91
2022/11/18 21:09:31;;;;;;;;;;;;;;;16.99;71.93;99548.09;6345480;22;19906;-92
2022/11/18 21:11:58;;;;;;;14.35;6.82;;;;;;;16.91;72.43;99548.44;6342996;22;19910;-92
2022/11/18 21:14:24;;;;;;;22.13;7.43;;;;;;;16.84;72.75;99542.28;6292354;22;20010;-91
2022/11/18 21:16:56;;;;;;;18.60;7.85;;;;;;;16.76;72.65;99535.22;6318985;22;20006;-91
2022/11/18 21:19:22;;;;;;;16.60;6.18;;;;;;;16.83;72.86;99557.72;6294331;22;20011;-92
2022/11/18 21:21:48;;;;;;;;;;;;;;;16.81;73.05;99559.84;6292768;22;20398;-91
2022/11/18 21:24:15;;;;;;;15.98;6.25;;;;;;;16.48;73.46;99516.78;6323919;22;19928;-90
2022/11/18 21:26:41;;;;;;;19.45;6.30;;;;;;;16.38;73.83;99530.06;6330093;22;20097;-92
2022/11/18 21:29:08;;;;;;;13.23;5.15;;;;;;;16.42;74.16;99536.69;6304963;22;20010;-92
2022/11/18 21:31:33;;;;;;;15.90;5.40;;;;;;;16.48;74.54;99562.91;6339480;22;20005;-91
2022/11/18 21:33:59;;;;;;;17.83;7.63;;;;;;;16.52;74.03;99569.53;6370097;22;19998;-92
2022/11/18 21:36:25;;;;;;;;;;;;;;;16.46;74.34;99582.13;6344429;22;20014;-90
2022/11/18 21:38:51;;;;;;;15.63;5.40;;;;;;;16.49;73.97;99563.75;6380628;22;19914;-92
2022/11/18 21:41:17;;;;;;;17.42;5.38;;;;;;;16.46;73.75;99555.00;6293840;22;20059;-92